Time;durP1;ratioP1;P1;durP2;ratioP2;P2;SDS_P1;SDS_P2;PMS_P1;PMS_P2;Temp;Humidity;BMP_temperature;BMP_pressure;BME280_temperature;BME280_humidity;BME280_pressure;Samples;Min_cycle;Max_cycle;Signal;HPM_P1;HPM_P2
2022/05/23 18:05:43;;;;;;;10.30;3.00;;;18.70;92.80;;;;;;5110673;27;1286916;-46
2022/05/23 18:08:10;;;;;;;11.20;2.78;;;18.50;93.10;;;;;;5130039;27;20044;-50
2022/05/23 18:10:37;;;;;;;5.88;2.45;;;18.40;93.70;;;;;;5131004;28;20119;-49
2022/05/23 18:13:04;;;;;;;10.70;3.00;;;18.30;94.70;;;;;;5124994;28;20379;-49
2022/05/23 18:21:06;;;;;;;17.40;4.15;;;18.00;96.80;;;;;;5099168;28;20056;-51
2022/05/23 18:23:33;;;;;;;13.68;3.83;;;17.80;97.60;;;;;;5108205;28;20044;-51
2022/05/23 18:26:00;;;;;;;6.72;2.35;;;17.50;99.10;;;;;;5110133;28;20478;-54
2022/05/23 18:28:27;;;;;;;8.75;2.13;;;17.00;98.40;;;;;;5110208;28;20490;-51
2022/05/23 18:30:55;;;;;;;8.63;2.22;;;16.40;98.90;;;;;;5109339;28;20112;-49
2022/05/23 18:33:23;;;;;;;5.05;2.03;;;16.00;99.90;;;;;;5110341;28;20039;-52
2022/05/23 18:35:50;;;;;;;6.10;2.50;;;15.60;99.90;;;;;;5110416;28;20100;-51
2022/05/23 18:38:17;;;;;;;5.78;2.00;;;15.40;99.90;;;;;;5110057;28;20051;-55
2022/05/23 18:40:44;;;;;;;5.60;2.17;;;15.30;99.90;;;;;;5110010;28;20044;-50
2022/05/23 18:43:10;;;;;;;5.13;2.20;;;15.20;99.90;;;;;;5109850;28;20050;-53
2022/05/23 18:45:37;;;;;;;4.63;2.70;;;15.10;99.90;;;;;;5109999;28;20051;-54
2022/05/23 18:50:51;;;;;;;7.22;2.97;;;15.00;99.90;;;;;;5090448;28;20041;-53
2022/05/23 18:53:18;;;;;;;7.97;3.30;;;14.90;99.90;;;;;;5090238;28;20046;-51
2022/05/23 18:55:47;;;;;;;8.15;3.30;;;14.80;99.90;;;;;;5092616;28;20541;-49
2022/05/23 18:58:18;;;;;;;7.20;3.17;;;14.80;99.90;;;;;;5110070;28;20032;-54
2022/05/23 19:01:07;;;;;;;6.43;2.80;;;14.70;99.90;;;;;;5109673;28;20039;-52
2022/05/23 19:03:33;;;;;;;9.65;2.65;;;14.60;99.90;;;;;;5108194;28;20083;-49
2022/05/23 19:06:02;;;;;;;7.32;2.20;;;14.50;99.90;;;;;;5109298;28;20109;-51
2022/05/23 19:08:29;;;;;;;4.63;2.20;;;14.40;99.90;;;;;;5108805;28;20040;-49
2022/05/23 19:10:56;;;;;;;5.25;2.55;;;14.30;99.90;;;;;;5109566;28;20040;-53
2022/05/23 19:13:22;;;;;;;4.80;2.53;;;14.30;99.90;;;;;;5109562;28;20119;-49
2022/05/23 19:15:57;;;;;;;6.07;2.80;;;14.30;99.90;;;;;;5101150;28;20471;-51
2022/05/23 19:18:24;;;;;;;6.32;2.55;;;14.40;99.90;;;;;;5095793;28;20059;-54
2022/05/23 19:20:51;;;;;;;4.13;2.45;;;14.40;99.90;;;;;;5095607;28;20113;-47
2022/05/23 19:23:19;;;;;;;5.05;2.28;;;14.40;99.90;;;;;;5082480;28;20044;-47
2022/05/23 19:25:48;;;;;;;6.25;2.50;;;14.30;99.90;;;;;;5095551;28;20122;-56
2022/05/23 19:28:16;;;;;;;6.65;2.70;;;14.20;99.90;;;;;;5095616;28;20040;-55
2022/05/23 19:30:43;;;;;;;4.00;2.30;;;14.20;99.90;;;;;;5095340;28;20522;-55
2022/05/23 19:33:10;;;;;;;4.15;2.03;;;14.20;99.90;;;;;;5095415;28;20036;-51
2022/05/23 19:35:38;;;;;;;4.22;1.80;;;14.20;99.90;;;;;;5095456;28;20058;-53
2022/05/23 19:38:07;;;;;;;5.93;2.25;;;14.10;99.90;;;;;;5095332;28;20066;-54
2022/05/23 19:40:34;;;;;;;2.95;1.95;;;14.20;99.90;;;;;;5095442;28;20380;-48
2022/05/23 19:43:01;;;;;;;4.30;2.33;;;14.20;99.90;;;;;;5094573;28;20044;-50
2022/05/23 19:45:28;;;;;;;5.05;2.42;;;14.30;99.90;;;;;;5093921;28;20093;-54
2022/05/23 19:47:55;;;;;;;5.07;2.20;;;14.30;99.90;;;;;;5095093;28;20040;-53
2022/05/23 19:50:22;;;;;;;4.38;2.30;;;14.20;99.90;;;;;;5095291;28;20043;-52
2022/05/23 19:52:48;;;;;;;4.93;2.25;;;14.20;99.90;;;;;;5095195;28;20032;-53
2022/05/23 19:55:19;;;;;;;4.45;2.42;;;14.20;99.90;;;;;;5095050;28;20040;-50
2022/05/23 19:57:46;;;;;;;3.85;2.20;;;14.20;99.90;;;;;;5095003;28;20054;-59
2022/05/23 20:00:12;;;;;;;4.85;2.63;;;14.20;99.90;;;;;;5088774;28;20047;-54
2022/05/23 20:08:14;;;;;;;4.50;2.55;;;14.10;99.90;;;;;;5088463;28;20121;-58
2022/05/23 20:10:40;;;;;;;5.43;2.85;;;14.10;99.90;;;;;;5093478;28;20040;-51
2022/05/23 20:13:08;;;;;;;6.13;2.80;;;14.10;99.90;;;;;;5094309;28;20492;-50
2022/05/23 20:15:36;;;;;;;5.60;2.80;;;14.10;99.90;;;;;;5094602;28;20067;-55
2022/05/23 20:18:03;;;;;;;6.38;2.40;;;14.10;99.90;;;;;;5094726;28;20510;-52
2022/05/23 20:20:30;;;;;;;6.97;3.08;;;14.10;99.90;;;;;;5094270;28;20483;-52
2022/05/23 20:22:56;;;;;;;5.03;2.63;;;14.10;99.90;;;;;;5094072;28;20355;-55
2022/05/23 20:25:24;;;;;;;5.53;2.90;;;14.00;99.90;;;;;;5074559;28;20040;-50
2022/05/23 20:27:50;;;;;;;4.70;2.88;;;14.00;99.90;;;;;;5073697;28;20037;-49
2022/05/23 20:30:17;;;;;;;5.85;3.08;;;13.90;99.90;;;;;;5074801;28;20040;-51
2022/05/23 20:32:44;;;;;;;4.53;2.25;;;13.90;99.90;;;;;;5094021;28;20040;-50
2022/05/23 20:35:11;;;;;;;4.68;2.55;;;13.80;99.90;;;;;;5094204;28;20039;-51
2022/05/23 20:37:38;;;;;;;5.63;2.58;;;13.80;99.90;;;;;;5094491;28;20061;-55
2022/05/23 20:40:05;;;;;;;3.92;2.33;;;13.70;99.90;;;;;;5094250;28;20036;-54
2022/05/23 20:42:33;;;;;;;7.60;2.38;;;13.70;99.90;;;;;;5094548;28;20070;-53
2022/05/23 20:44:59;;;;;;;3.85;2.10;;;13.60;99.90;;;;;;5094177;28;20040;-49
2022/05/23 20:47:26;;;;;;;6.03;2.80;;;13.50;99.90;;;;;;5093980;28;20470;-54
2022/05/23 20:49:53;;;;;;;4.68;2.05;;;13.50;99.90;;;;;;5093965;28;20089;-50
2022/05/23 20:52:20;;;;;;;5.22;2.03;;;13.50;99.90;;;;;;5092260;28;20506;-50
2022/05/23 20:54:47;;;;;;;8.60;2.33;;;13.40;99.90;;;;;;5083269;28;20426;-52
2022/05/23 20:57:14;;;;;;;6.32;2.25;;;13.30;99.90;;;;;;5081851;28;20458;-50
2022/05/23 20:59:41;;;;;;;4.13;2.03;;;13.30;99.90;;;;;;5084155;28;20044;-51
2022/05/23 21:02:08;;;;;;;5.57;1.85;;;13.30;99.90;;;;;;5087068;28;20161;-46
2022/05/23 21:04:35;;;;;;;4.65;1.95;;;13.20;99.90;;;;;;5088318;28;20056;-51
2022/05/23 21:07:02;;;;;;;3.25;1.83;;;13.20;99.90;;;;;;5091979;28;20039;-53
2022/05/23 21:09:28;;;;;;;3.40;2.00;;;13.10;99.90;;;;;;5085986;28;20044;-54
2022/05/23 21:11:56;;;;;;;3.53;2.53;;;13.10;99.90;;;;;;5084522;28;20106;-52
2022/05/23 21:14:26;;;;;;;5.82;1.92;;;13.10;99.90;;;;;;5088489;28;20081;-49
2022/05/23 21:16:55;;;;;;;3.45;1.75;;;13.00;99.90;;;;;;5080256;28;20043;-51
2022/05/23 21:19:22;;;;;;;3.53;1.60;;;13.00;99.90;;;;;;5074012;28;20040;-52
2022/05/23 21:21:49;;;;;;;3.65;1.55;;;13.00;99.90;;;;;;5080888;28;20042;-52
2022/05/23 21:24:22;;;;;;;3.58;1.90;;;13.00;99.90;;;;;;5090561;28;20032;-50
2022/05/23 21:26:48;;;;;;;4.07;1.58;;;13.00;99.90;;;;;;5074162;28;20048;-54
2022/05/23 21:29:15;;;;;;;5.45;1.55;;;12.90;99.90;;;;;;5087404;28;20040;-53
2022/05/23 21:31:44;;;;;;;3.17;1.20;;;12.80;99.90;;;;;;5090192;28;20050;-51
2022/05/23 21:34:12;;;;;;;2.40;1.40;;;12.80;99.90;;;;;;5085221;28;20058;-54
2022/05/23 21:36:39;;;;;;;5.05;1.40;;;12.80;99.90;;;;;;5086672;28;20044;-54
2022/05/23 21:39:05;;;;;;;4.55;1.38;;;12.80;99.90;;;;;;5084902;28;20039;-52
2022/05/23 21:47:03;;;;;;;2.50;0.90;;;12.60;99.90;;;;;;5084123;28;20143;-51
2022/05/23 21:49:30;;;;;;;1.98;1.00;;;12.70;99.90;;;;;;5093093;28;20536;-46
2022/05/23 21:51:57;;;;;;;2.92;0.90;;;12.60;99.90;;;;;;5089524;28;20556;-47
2022/05/23 21:54:24;;;;;;;3.47;1.00;;;12.60;99.90;;;;;;5089233;28;20046;-50
2022/05/23 21:56:55;;;;;;;3.28;0.90;;;12.70;99.90;;;;;;5086093;28;20480;-49
2022/05/23 21:59:22;;;;;;;5.03;1.13;;;12.70;99.90;;;;;;5082941;28;20059;-51
2022/05/23 22:01:48;;;;;;;2.72;0.90;;;12.70;99.90;;;;;;5076314;28;20102;-48
2022/05/23 22:04:15;;;;;;;3.08;1.05;;;12.80;99.90;;;;;;5082813;28;20066;-54
2022/05/23 22:06:42;;;;;;;2.50;1.05;;;12.80;99.90;;;;;;5091193;28;20089;-51
2022/05/23 22:09:09;;;;;;;5.40;1.00;;;12.80;99.90;;;;;;5081412;28;20032;-48
2022/05/23 22:11:36;;;;;;;2.70;0.90;;;12.90;99.90;;;;;;5084271;28;20106;-49
2022/05/23 22:14:03;;;;;;;5.32;0.98;;;12.90;99.90;;;;;;5082006;28;20116;-53
2022/05/23 22:16:30;;;;;;;2.30;1.00;;;12.90;99.90;;;;;;5073370;28;20488;-57
2022/05/23 22:18:57;;;;;;;2.90;1.00;;;12.90;99.90;;;;;;5090154;28;20040;-50
2022/05/23 22:21:26;;;;;;;3.10;1.10;;;12.90;99.90;;;;;;5082263;28;20058;-54
2022/05/23 22:23:53;;;;;;;2.55;1.02;;;12.90;99.90;;;;;;5084681;28;20058;-51
2022/05/23 22:26:20;;;;;;;2.72;0.90;;;12.90;99.90;;;;;;5082892;28;20146;-52
2022/05/23 22:28:47;;;;;;;2.72;0.82;;;13.00;99.90;;;;;;5076830;28;20119;-54
2022/05/23 22:31:14;;;;;;;3.85;1.10;;;12.90;99.90;;;;;;5086074;28;20537;-53
2022/05/23 22:33:40;;;;;;;3.25;1.00;;;13.00;99.90;;;;;;5082984;28;20034;-47
2022/05/23 22:36:07;;;;;;;1.77;0.90;;;13.00;99.90;;;;;;5078412;28;20036;-55
2022/05/23 22:38:34;;;;;;;3.10;1.10;;;13.00;99.90;;;;;;5074030;28;20070;-49
2022/05/23 22:41:01;;;;;;;3.60;0.98;;;13.10;99.90;;;;;;5081237;28;20048;-50
2022/05/23 22:43:28;;;;;;;3.55;1.00;;;13.10;99.90;;;;;;5082312;28;20143;-54
2022/05/23 22:45:54;;;;;;;4.43;0.90;;;13.10;99.90;;;;;;5082387;28;20123;-52
2022/05/23 22:48:21;;;;;;;5.22;1.30;;;13.10;99.90;;;;;;5079641;28;20043;-52
2022/05/23 22:50:48;;;;;;;3.45;1.20;;;13.10;99.90;;;;;;5076404;28;20040;-52
2022/05/23 22:53:20;;;;;;;3.00;1.00;;;13.10;99.90;;;;;;5081472;28;20068;-53
2022/05/23 22:55:47;;;;;;;3.97;1.10;;;13.10;99.90;;;;;;5082145;28;20074;-52
2022/05/23 22:58:14;;;;;;;5.65;1.30;;;13.00;99.90;;;;;;5078882;28;20060;-50
2022/05/23 23:00:40;;;;;;;4.00;0.90;;;13.00;99.90;;;;;;5079487;28;20056;-50
2022/05/23 23:05:54;;;;;;;1.30;0.57;;;12.60;99.90;;;;;;5082959;28;20053;-51
2022/05/23 23:08:21;;;;;;;1.60;0.60;;;12.40;99.90;;;;;;5078964;28;20051;-54
2022/05/23 23:10:48;;;;;;;1.85;0.70;;;12.30;99.90;;;;;;5085025;28;20032;-57
2022/05/23 23:13:15;;;;;;;1.75;0.70;;;12.20;99.90;;;;;;5095750;28;20044;-49
2022/05/23 23:15:41;;;;;;;1.42;0.60;;;12.20;99.90;;;;;;5090827;28;20045;-55
2022/05/23 23:18:08;;;;;;;2.35;0.75;;;12.20;99.90;;;;;;5076241;28;20079;-53
2022/05/23 23:20:35;;;;;;;2.15;0.80;;;12.10;99.90;;;;;;5093319;28;20097;-49
2022/05/23 23:23:02;;;;;;;1.77;0.68;;;12.10;99.90;;;;;;5084985;28;20041;-51
2022/05/23 23:25:28;;;;;;;2.05;0.80;;;12.10;99.90;;;;;;5091032;28;20040;-49
2022/05/23 23:27:55;;;;;;;1.77;0.82;;;12.10;99.90;;;;;;5086089;28;20484;-49
2022/05/23 23:30:22;;;;;;;2.50;0.80;;;12.20;99.90;;;;;;5078801;28;20035;-53
2022/05/23 23:38:25;;;;;;;1.33;0.57;;;12.10;99.90;;;;;;5086234;28;20044;-52
2022/05/23 23:40:52;;;;;;;1.20;0.70;;;12.10;99.90;;;;;;5086234;28;20072;-53
2022/05/23 23:43:19;;;;;;;2.05;0.57;;;12.00;99.90;;;;;;5086785;28;20039;-51
2022/05/23 23:45:45;;;;;;;1.27;0.50;;;11.90;99.90;;;;;;5083968;28;20076;-53
2022/05/23 23:48:12;;;;;;;3.28;0.80;;;11.80;99.90;;;;;;5080983;28;20041;-47
2022/05/23 23:50:39;;;;;;;1.40;0.80;;;11.80;99.90;;;;;;5076031;28;20447;-45
2022/05/23 23:53:06;;;;;;;2.28;0.60;;;11.80;99.90;;;;;;5075861;28;20086;-49
2022/05/23 23:55:32;;;;;;;1.38;0.60;;;11.80;99.90;;;;;;5079915;28;20097;-53
2022/05/23 23:57:59;;;;;;;1.63;0.60;;;11.80;99.90;;;;;;5089696;28;21293;-46
